| time (UTC) | temp C | wind direction | speed KPH | gust KPH | rain 1hr cm | rain 24hr cm | rain mn cm | humidity % | barometer mb |
| 20260506184537 | 10 | 0.0 | 0.0 | 0.00 | 0.71 | 0.69 | 87 | 1009.3 | |
| 20260506183537 | 10 | 0.0 | 1.6 | 0.00 | 0.71 | 0.69 | 87 | 1009.0 | |
| 20260506182517 | 10 | 0.0 | 0.0 | 0.00 | 0.71 | 0.69 | 87 | 1008.9 | |
| 20260506181517 | 10 | 0.0 | 0.0 | 0.00 | 0.71 | 0.69 | 87 | 1008.9 | |
| 20260506180517 | 10 | 0.0 | 3.2 | 0.00 | 0.71 | 0.69 | 87 | 1008.9 | |
| 20260506175517 | 10 | 0.0 | 1.6 | 0.00 | 0.71 | 0.69 | 88 | 1008.9 | |
| 20260506174700 | 11 | 0.0 | 3.2 | 0.00 | 0.71 | 0.69 | 88 | 1008.9 | |
| 20260506173517 | 11 | 0.0 | 1.6 | 0.00 | 0.71 | 0.69 | 88 | 1008.5 | |
| 20260506172517 | 11 | 0.0 | 4.8 | 0.00 | 0.71 | 0.69 | 88 | 1008.5 | |
| 20260506171517 | 11 | 0.0 | 1.6 | 0.00 | 0.71 | 0.69 | 88 | 1008.4 | |
| 20260506170517 | 11 | 0.0 | 6.4 | 0.00 | 0.71 | 0.69 | 88 | 1008.0 | |
| 20260506165537 | 11 | 0.0 | 4.8 | 0.00 | 0.71 | 0.69 | 89 | 1008.0 | |
| 20260506164516 | 11 | 0.0 | 3.2 | 0.00 | 0.71 | 0.69 | 90 | 1008.0 | |
| 20260506163517 | 11 | 0.0 | 3.2 | 0.00 | 0.71 | 0.69 | 89 | 1007.9 | |
| 20260506162517 | 11 | 0.0 | 1.6 | 0.00 | 0.71 | 0.69 | 89 | 1007.9 | |
| 20260506161537 | 11 | 0.0 | 3.2 | 0.00 | 0.71 | 0.69 | 89 | 1007.9 | |
| 20260506160517 | 11 | 0.0 | 4.8 | 0.00 | 0.71 | 0.69 | 90 | 1007.8 | |
| 20260506155517 | 11 | 293 | 1.6 | 11.3 | 0.00 | 0.71 | 0.69 | 90 | 1007.5 |
| 20260506154559 | 11 | 293 | 1.6 | 6.4 | 0.00 | 0.71 | 0.69 | 91 | 1007.5 |
| 20260506153537 | 11 | 0.0 | 6.4 | 0.00 | 0.71 | 0.69 | 92 | 1007.8 | |
| 20260506152517 | 10 | 293 | 1.6 | 8.0 | 0.03 | 0.71 | 0.69 | 92 | 1007.9 |
| 20260506151517 | 10 | 0.0 | 0.0 | 0.05 | 0.71 | 0.69 | 92 | 1007.8 | |
| 20260506150537 | 10 | 0.0 | 4.8 | 0.15 | 0.71 | 0.69 | 92 | 1007.9 | |
| 20260506145516 | 10 | 293 | 1.6 | 6.4 | 0.28 | 0.71 | 0.69 | 91 | 1007.8 |
| 20260506144516 | 10 | 0.0 | 1.6 | 0.36 | 0.71 | 0.69 | 92 | 1007.7 | |
| 20260506143516 | 10 | 293 | 1.6 | 8.0 | 0.48 | 0.71 | 0.69 | 92 | 1007.5 |
| 20260506142516 | 10 | 293 | 1.6 | 8.0 | 0.58 | 0.69 | 0.66 | 90 | 1007.4 |
| 20260506141537 | 10 | 0.0 | 4.8 | 0.64 | 0.66 | 0.64 | 89 | 1007.2 | |
| 20260506140517 | 10 | 270 | 1.6 | 14.5 | 0.53 | 0.56 | 0.53 | 88 | 1007.3 |
| 20260506135517 | 11 | 293 | 1.6 | 6.4 | 0.41 | 0.43 | 0.41 | 86 | 1007.1 |
| 20260506134516 | 11 | 293 | 1.6 | 16.1 | 0.33 | 0.33 | 0.33 | 84 | 1006.7 |
| 20260506133516 | 12 | 293 | 3.2 | 14.5 | 0.20 | 0.23 | 0.20 | 81 | 1006.7 |
| 20260506132517 | 13 | 0.0 | 1.6 | 0.08 | 0.10 | 0.08 | 78 | 1006.8 | |
| 20260506131537 | 15 | 0.0 | 1.6 | 0.00 | 0.03 | 0.00 | 75 | 1006.5 | |
| 20260506130516 | 15 | 0.0 | 0.0 | 0.00 | 0.03 | 0.00 | 74 | 1006.1 | |
| 20260506125537 | 15 | 0.0 | 0.0 | 0.00 | 0.03 | 0.00 | 73 | 1005.9 | |
| 20260506124516 | 15 | 0.0 | 0.0 | 0.00 | 0.03 | 0.00 | 72 | 1005.7 | |
| 20260506123517 | 15 | 0.0 | 0.0 | 0.00 | 0.03 | 0.00 | 72 | 1005.7 | |
| 20260506122517 | 15 | 0.0 | 0.0 | 0.00 | 0.03 | 0.00 | 71 | 1005.6 | |
| 20260506121517 | 15 | 0.0 | 0.0 | 0.00 | 0.03 | 0.00 | 75 | 1005.6 | |
| 20260506120516 | 15 | 0.0 | 0.0 | 0.00 | 0.03 | 0.00 | 75 | 1005.7 | |
| 20260506115556 | 15 | 0.0 | 0.0 | 0.00 | 0.03 | 0.00 | 74 | 1005.7 | |
| 20260506114517 | 15 | 0.0 | 0.0 | 0.00 | 0.03 | 0.00 | 76 | 1005.7 | |
| 20260506113516 | 15 | 0.0 | 0.0 | 0.00 | 0.03 | 0.00 | 77 | 1005.4 | |
| 20260506112517 | 14 | 0.0 | 0.0 | 0.00 | 0.03 | 0.00 | 79 | 1005.4 | |
| 20260506111536 | 14 | 0.0 | 0.0 | 0.00 | 0.03 | 0.00 | 80 | 1005.6 | |
| 20260506110517 | 14 | 0.0 | 0.0 | 0.00 | 0.03 | 0.00 | 82 | 1005.8 | |
| 20260506105516 | 14 | 0.0 | 0.0 | 0.00 | 0.03 | 0.00 | 83 | 1005.8 | |
| 20260506104537 | 14 | 0.0 | 0.0 | 0.00 | 0.03 | 0.00 | 84 | 1005.9 | |
| 20260506103516 | 13 | 0.0 | 0.0 | 0.00 | 0.03 | 0.00 | 84 | 1006.1 | |
| 20260506102516 | 14 | 0.0 | 0.0 | 0.00 | 0.03 | 0.00 | 85 | 1006.0 | |
| 20260506101516 | 13 | 0.0 | 0.0 | 0.00 | 0.03 | 0.00 | 86 | 1006.0 | |
| 20260506100516 | 13 | 0.0 | 0.0 | 0.00 | 0.03 | 0.00 | 86 | 1006.2 | |
| 20260506095537 | 13 | 0.0 | 0.0 | 0.00 | 0.03 | 0.00 | 87 | 1005.9 | |
| 20260506094516 | 13 | 0.0 | 0.0 | 0.00 | 0.03 | 0.00 | 87 | 1006.3 | |
| 20260506093516 | 12 | 0.0 | 0.0 | 0.00 | 0.03 | 0.00 | 88 | 1006.2 | |
| 20260506092536 | 12 | 0.0 | 0.0 | 0.00 | 0.03 | 0.00 | 88 | 1006.2 | |
| 20260506091518 | 12 | 0.0 | 0.0 | 0.00 | 0.03 | 0.00 | 88 | 1006.1 | |
| 20260506090516 | 12 | 0.0 | 0.0 | 0.00 | 0.03 | 0.00 | 89 | 1006.2 | |
| 20260506085516 | 12 | 0.0 | 0.0 | 0.00 | 0.03 | 0.00 | 89 | 1006.3 | |
| 20260506084516 | 12 | 0.0 | 0.0 | 0.00 | 0.03 | 0.00 | 90 | 1006.2 | |
| 20260506083516 | 12 | 0.0 | 0.0 | 0.00 | 0.03 | 0.00 | 89 | 1006.1 | |
| 20260506082516 | 12 | 0.0 | 0.0 | 0.00 | 0.03 | 0.00 | 90 | 1006.2 | |
| 20260506081516 | 12 | 0.0 | 0.0 | 0.00 | 0.03 | 0.00 | 92 | 1006.2 | |
| 20260506080516 | 11 | 0.0 | 0.0 | 0.00 | 0.03 | 0.00 | 92 | 1006.2 | |
| 20260506073516 | 11 | 0.0 | 0.0 | 0.00 | 0.03 | 0.00 | 92 | 1006.3 | |
| 20260506072516 | 11 | 0.0 | 0.0 | 0.00 | 0.03 | 0.00 | 92 | 1006.3 | |
| 20260506071556 | 11 | 0.0 | 0.0 | 0.00 | 0.03 | 0.00 | 92 | 1006.3 | |
| 20260506070516 | 11 | 0.0 | 0.0 | 0.00 | 0.03 | 0.00 | 91 | 1006.3 | |
| 20260506062516 | 11 | 0.0 | 0.0 | 0.00 | 0.03 | 0.00 | 93 | 1006.5 | |
| 20260506061536 | 11 | 0.0 | 0.0 | 0.00 | 0.03 | 0.00 | 93 | 1006.6 | |
| 20260506060516 | 11 | 0.0 | 0.0 | 0.00 | 0.03 | 0.00 | 93 | 1006.5 | |
| 20260506050516 | 8 | 0.0 | 0.0 | 0.00 | 0.03 | 0.00 | 92 | 1006.6 | |
| 20260506044516 | 8 | 0.0 | 0.0 | 0.00 | 0.03 | 0.00 | 91 | 1006.6 | |
| 20260506043516 | 8 | 0.0 | 0.0 | 0.00 | 0.03 | 0.00 | 91 | 1006.6 | |
| 20260506042516 | 8 | 0.0 | 0.0 | 0.00 | 0.03 | 0.00 | 91 | 1006.6 | |
| 20260506041520 | 8 | 0.0 | 0.0 | 0.00 | 0.03 | 0.00 | 91 | 1006.8 | |
| 20260506040516 | 8 | 0.0 | 0.0 | 0.00 | 0.03 | 0.00 | 91 | 1006.8 | |
| 20260506035518 | 8 | 0.0 | 0.0 | 0.00 | 0.03 | 0.00 | 91 | 1007.0 | |
| 20260506034516 | 8 | 0.0 | 0.0 | 0.00 | 0.03 | 0.00 | 90 | 1007.1 | |
| 20260506033516 | 8 | 0.0 | 0.0 | 0.00 | 0.03 | 0.00 | 90 | 1007.1 | |
| 20260506032516 | 8 | 0.0 | 0.0 | 0.00 | 0.03 | 0.00 | 90 | 1007.3 | |
| 20260506031516 | 8 | 0.0 | 0.0 | 0.00 | 0.03 | 0.00 | 90 | 1007.3 | |
| 20260506030516 | 8 | 0.0 | 0.0 | 0.00 | 0.03 | 0.00 | 90 | 1007.2 | |
| 20260506025516 | 8 | 0.0 | 0.0 | 0.00 | 0.03 | 0.00 | 90 | 1007.5 | |
| 20260506024516 | 8 | 0.0 | 0.0 | 0.00 | 0.03 | 0.00 | 90 | 1007.6 | |
| 20260506023516 | 8 | 0.0 | 0.0 | 0.00 | 0.03 | 0.00 | 90 | 1007.6 | |
| 20260506022516 | 8 | 0.0 | 0.0 | 0.00 | 0.03 | 0.00 | 90 | 1007.6 | |
| 20260506021516 | 8 | 0.0 | 0.0 | 0.00 | 0.03 | 0.00 | 90 | 1007.5 | |
| 20260506020536 | 8 | 0.0 | 0.0 | 0.00 | 0.03 | 0.00 | 90 | 1007.9 | |
| 20260506015516 | 8 | 0.0 | 0.0 | 0.00 | 0.03 | 0.00 | 90 | 1007.9 | |
| 20260506014536 | 8 | 0.0 | 0.0 | 0.00 | 0.03 | 0.00 | 89 | 1008.0 | |
| 20260506013516 | 9 | 0.0 | 0.0 | 0.00 | 0.03 | 0.00 | 89 | 1008.2 | |
| 20260506012516 | 9 | 0.0 | 0.0 | 0.00 | 0.03 | 0.00 | 89 | 1008.2 | |
| 20260506011516 | 9 | 0.0 | 0.0 | 0.00 | 0.03 | 0.00 | 89 | 1008.3 | |
| 20260506010516 | 9 | 0.0 | 0.0 | 0.00 | 0.03 | 0.00 | 89 | 1008.4 | |
| 20260506005516 | 9 | 0.0 | 0.0 | 0.00 | 0.03 | 0.00 | 89 | 1008.4 | |
| 20260506004536 | 9 | 0.0 | 0.0 | 0.00 | 0.03 | 0.00 | 89 | 1008.4 | |
| 20260506003536 | 9 | 0.0 | 0.0 | 0.00 | 0.03 | 0.00 | 89 | 1008.5 | |
| 20260506002516 | 9 | 0.0 | 0.0 | 0.00 | 0.03 | 0.00 | 88 | 1008.6 | |
| 20260506001516 | 9 | 0.0 | 0.0 | 0.00 | 0.03 | 0.00 | 88 | 1008.5 | |
| 20260506000516 | 9 | 0.0 | 0.0 | 0.00 | 0.03 | 0.00 | 88 | 1008.4 | |
| 20260505235515 | 10 | 0.0 | 0.0 | 0.00 | 0.03 | 0.00 | 88 | 1008.3 | |
| 20260505234536 | 10 | 0.0 | 0.0 | 0.00 | 0.03 | 0.00 | 88 | 1008.5 | |
| 20260505233516 | 10 | 0.0 | 0.0 | 0.00 | 0.03 | 0.00 | 88 | 1008.6 | |
| 20260505232516 | 10 | 0.0 | 0.0 | 0.00 | 0.03 | 0.00 | 88 | 1008.7 | |
| 20260505231516 | 10 | 0.0 | 0.0 | 0.00 | 0.03 | 0.00 | 88 | 1008.7 | |
| 20260505230516 | 10 | 0.0 | 0.0 | 0.00 | 0.03 | 0.00 | 88 | 1008.7 | |
| 20260505225516 | 10 | 0.0 | 0.0 | 0.00 | 0.03 | 0.00 | 88 | 1008.7 | |
| 20260505224556 | 10 | 0.0 | 0.0 | 0.00 | 0.03 | 0.00 | 87 | 1008.9 | |
| 20260505223515 | 10 | 0.0 | 0.0 | 0.00 | 0.03 | 0.00 | 87 | 1009.0 | |
| 20260505222516 | 10 | 0.0 | 0.0 | 0.00 | 0.03 | 0.00 | 87 | 1009.0 | |
| 20260505221515 | 10 | 0.0 | 0.0 | 0.00 | 0.03 | 0.00 | 87 | 1009.0 | |
| 20260505220516 | 10 | 0.0 | 0.0 | 0.00 | 0.03 | 0.00 | 87 | 1009.0 | |
| 20260505215517 | 10 | 0.0 | 0.0 | 0.00 | 0.03 | 0.03 | 87 | 1009.1 | |
| 20260505214516 | 11 | 0.0 | 0.0 | 0.00 | 0.03 | 0.03 | 86 | 1009.1 | |
| 20260505213556 | 11 | 0.0 | 0.0 | 0.00 | 0.03 | 0.03 | 86 | 1009.1 | |
| 20260505212516 | 11 | 0.0 | 0.0 | 0.00 | 0.03 | 0.03 | 86 | 1009.1 | |
| 20260505211516 | 11 | 0.0 | 0.0 | 0.00 | 0.03 | 0.03 | 86 | 1009.1 | |
| 20260505210516 | 11 | 0.0 | 0.0 | 0.00 | 0.03 | 0.03 | 85 | 1009.1 | |
| 20260505205516 | 11 | 0.0 | 0.0 | 0.00 | 0.03 | 0.03 | 84 | 1009.2 | |
| 20260505204516 | 11 | 0.0 | 0.0 | 0.00 | 0.03 | 0.03 | 84 | 1009.1 | |
| 20260505203516 | 11 | 0.0 | 0.0 | 0.00 | 0.03 | 0.03 | 84 | 1009.0 | |
| 20260505202516 | 12 | 0.0 | 0.0 | 0.00 | 0.03 | 0.03 | 84 | 1009.0 | |
| 20260505201516 | 12 | 0.0 | 0.0 | 0.00 | 0.03 | 0.03 | 84 | 1009.0 | |
| 20260505200516 | 12 | 0.0 | 0.0 | 0.00 | 0.03 | 0.03 | 83 | 1009.0 | |
| 20260505195516 | 12 | 0.0 | 0.0 | 0.00 | 0.03 | 0.03 | 83 | 1009.0 | |
| 20260505194516 | 12 | 0.0 | 0.0 | 0.03 | 0.03 | 0.03 | 82 | 1008.9 | |
| 20260505193516 | 12 | 0.0 | 0.0 | 0.03 | 0.03 | 0.03 | 82 | 1008.8 | |
| 20260505192516 | 12 | 0.0 | 0.0 | 0.03 | 0.03 | 0.03 | 81 | 1008.8 | |
| 20260505191516 | 12 | 0.0 | 0.0 | 0.03 | 0.03 | 0.03 | 80 | 1008.7 | |
| 20260505190516 | 12 | 0.0 | 0.0 | 0.03 | 0.03 | 0.03 | 80 | 1008.7 | |
| 20260505185516 | 13 | 0.0 | 0.0 | 0.03 | 0.03 | 0.03 | 80 | 1008.8 |